Time;durP1;ratioP1;P1;durP2;ratioP2;P2;SDS_P1;SDS_P2;PMS_P1;PMS_P2;Temp;Humidity;BMP_temperature;BMP_pressure;BME280_temperature;BME280_humidity;BME280_pressure;Samples;Min_cycle;Max_cycle;Signal;HPM_P1;HPM_P2
2021/12/15 00:02:35;;;;;;;48.85;30.97;;;;;;;5.19;79.83;101463.41;2173420;81;33981;-63
2021/12/15 00:05:40;;;;;;;49.20;31.52;;;;;;;5.19;79.83;101459.42;2153745;82;29669;-67
2021/12/15 00:08:41;;;;;;;50.58;32.63;;;;;;;5.19;79.87;101450.58;2173837;81;27712;-64
2021/12/15 00:11:45;;;;;;;54.55;33.48;;;;;;;5.20;79.91;101448.36;2189126;81;28813;-64
2021/12/15 00:14:47;;;;;;;59.13;34.05;;;;;;;5.21;79.93;101451.45;2165601;81;31012;-64
2021/12/15 00:17:51;;;;;;;63.40;36.75;;;;;;;5.22;79.98;101450.53;2189113;81;32416;-65
2021/12/15 00:20:52;;;;;;;60.23;35.40;;;;;;;5.23;79.97;101451.86;2153757;82;29702;-71
2021/12/15 00:23:54;;;;;;;58.33;35.13;;;;;;;5.26;80.07;101445.20;2174022;81;27806;-70
2021/12/15 00:27:01;;;;;;;60.45;37.03;;;;;;;5.27;80.00;101444.31;2153687;82;28659;-76
2021/12/15 00:30:06;;;;;;;64.22;38.20;;;;;;;5.32;80.11;101449.57;2173910;81;31001;-64
2021/12/15 00:33:09;;;;;;;60.40;36.93;;;;;;;5.33;80.13;101442.90;2189247;81;33781;-72
2021/12/15 00:36:11;;;;;;;63.87;37.15;;;;;;;5.37;80.12;101438.46;2189277;81;29687;-64
2021/12/15 00:39:18;;;;;;;62.85;37.65;;;;;;;5.41;80.14;101438.84;2189402;81;27620;-64
2021/12/15 00:42:20;;;;;;;61.28;35.30;;;;;;;5.44;80.13;101443.27;2189116;81;28718;-64
2021/12/15 00:45:22;;;;;;;59.58;35.15;;;;;;;5.45;80.10;101447.23;2189336;81;31269;-64
2021/12/15 00:48:24;;;;;;;55.95;35.10;;;;;;;5.48;80.07;101450.29;2189334;81;33705;-64
2021/12/15 00:51:25;;;;;;;60.55;36.40;;;;;;;5.48;80.09;101451.19;2153936;82;30433;-72
2021/12/15 00:54:27;;;;;;;66.60;37.00;;;;;;;5.51;80.05;101454.72;2174037;81;27637;-65
2021/12/15 00:57:29;;;;;;;61.85;35.20;;;;;;;5.52;80.08;101452.49;2154032;82;29514;-66
2021/12/15 01:00:42;;;;;;;65.62;35.25;;;;;;;5.54;80.13;101458.21;2173916;81;31004;-64
2021/12/15 01:03:43;;;;;;;57.55;34.67;;;;;;;5.56;80.09;101456.86;2189444;81;32968;-64
2021/12/15 01:06:52;;;;;;;58.25;35.15;;;;;;;5.58;80.09;101456.40;2189450;81;29628;-64
2021/12/15 01:09:57;;;;;;;62.40;35.05;;;;;;;5.60;80.02;101454.61;2188658;81;27666;-68
2021/12/15 01:19:50;;;;;;;61.23;34.48;;;;;;;5.60;79.87;101463.91;2189416;81;33495;-63
2021/12/15 01:22:53;;;;;;;53.50;34.18;;;;;;;5.60;79.91;101466.14;2189009;81;30627;-63
2021/12/15 01:26:00;;;;;;;57.05;33.73;;;;;;;5.59;79.96;101467.03;2154102;82;27725;-69
2021/12/15 01:29:03;;;;;;;51.85;33.55;;;;;;;5.61;80.03;101468.34;2173951;81;28663;-63
2021/12/15 01:32:05;;;;;;;54.98;32.42;;;;;;;5.64;80.06;101466.98;2153819;82;31861;-72
2021/12/15 01:35:08;;;;;;;55.28;33.70;;;;;;;5.65;79.99;101468.74;2173853;81;33057;-74
2021/12/15 01:38:12;;;;;;;56.68;34.13;;;;;;;5.65;79.92;101467.41;2189289;81;29627;-66
2021/12/15 01:41:22;;;;;;;58.20;34.38;;;;;;;5.66;79.99;101468.28;2188742;81;27736;-67
2021/12/15 01:47:27;;;;;;;57.78;34.38;;;;;;;5.69;80.04;101476.23;2173881;81;31010;-63
2021/12/15 01:50:34;;;;;;;56.53;33.63;;;;;;;5.71;80.08;101471.78;2154056;82;33114;-63
2021/12/15 01:53:36;;;;;;;50.23;32.45;;;;;;;5.74;80.14;101470.42;2173786;81;30707;-63
2021/12/15 01:56:38;;;;;;;52.15;31.95;;;;;;;5.76;80.15;101477.48;2154176;82;27673;-73
2021/12/15 01:59:42;;;;;;;53.98;33.50;;;;;;;5.77;80.17;101471.27;2174018;81;28902;-63
2021/12/15 02:02:44;;;;;;;54.53;31.85;;;;;;;5.78;80.21;101474.36;2189242;81;31023;-65
2021/12/15 02:05:46;;;;;;;56.05;32.40;;;;;;;5.80;80.22;101472.13;2189207;81;33949;-63
2021/12/15 02:08:48;;;;;;;55.08;32.60;;;;;;;5.81;80.27;101477.42;2189177;81;29627;-63
2021/12/15 02:11:50;;;;;;;56.55;34.23;;;;;;;5.84;80.31;101481.38;2154306;82;27665;-65
2021/12/15 02:14:53;;;;;;;60.00;33.90;;;;;;;5.85;80.28;101481.81;2173978;81;29500;-64
2021/12/15 02:17:55;;;;;;;56.48;33.58;;;;;;;5.86;80.26;101480.92;2153791;82;31909;-64
2021/12/15 02:21:07;;;;;;;50.48;31.07;;;;;;;5.88;80.29;101478.23;2173884;81;32968;-63
2021/12/15 02:24:09;;;;;;;55.52;31.82;;;;;;;5.90;80.33;101477.77;2189403;81;29857;-64
2021/12/15 02:27:13;;;;;;;53.87;33.02;;;;;;;5.92;80.33;101486.19;2189270;81;27710;-63
2021/12/15 02:30:40;;;;;;;57.40;33.85;;;;;;;5.92;80.28;101483.95;2189372;81;28663;-64
2021/12/15 02:33:48;;;;;;;52.65;31.62;;;;;;;5.92;80.27;101482.20;2150666;82;31960;-65
2021/12/15 02:40:05;;;;;;;58.98;34.33;;;;;;;5.95;80.29;101482.59;2114740;84;30420;-65
2021/12/15 02:43:07;;;;;;;57.08;35.60;;;;;;;5.95;80.28;101485.26;2115897;83;27708;-67
2021/12/15 02:46:09;;;;;;;58.02;33.38;;;;;;;5.95;80.31;101490.58;2116532;84;28760;-64
2021/12/15 02:49:14;;;;;;;59.55;33.58;;;;;;;5.95;80.39;101485.26;2116640;84;31861;-64
2021/12/15 02:52:16;;;;;;;61.05;33.08;;;;;;;5.97;80.39;101490.12;2116629;84;32965;-64
2021/12/15 02:55:18;;;;;;;61.75;35.10;;;;;;;5.99;80.40;101492.75;2110858;84;29800;-65
2021/12/15 02:58:21;;;;;;;59.00;34.70;;;;;;;5.98;80.38;101495.88;2102416;84;27750;-64
2021/12/15 03:01:52;;;;;;;63.02;35.25;;;;;;;6.00;80.42;101499.43;2102065;84;28257;-65
2021/12/15 03:04:47;;;;;;;68.20;34.03;;;;;;;5.99;80.42;101497.63;2101651;84;31861;-65
2021/12/15 03:07:55;;;;;;;61.95;35.28;;;;;;;5.99;80.48;101497.63;2115952;84;33800;-63
2021/12/15 03:17:34;;;;;;;64.53;35.55;;;;;;;6.04;80.59;101499.80;2191987;81;28751;-64
2021/12/15 03:20:46;;;;;;;63.75;36.75;;;;;;;6.07;80.66;101494.45;2191539;81;31121;-64
2021/12/15 03:23:55;;;;;;;58.60;33.73;;;;;;;6.09;80.64;101497.12;2184103;81;27865;-66
2021/12/15 03:27:04;;;;;;;58.05;32.70;;;;;;;6.12;80.65;101501.08;2191683;81;30425;-65
2021/12/15 03:33:36;;;;;;;58.15;33.18;;;;;;;6.15;80.63;101500.15;2191831;81;28662;-63
2021/12/15 03:36:41;;;;;;;61.70;34.15;;;;;;;6.15;80.67;101516.11;2190351;81;31018;-65
2021/12/15 03:39:45;;;;;;;59.73;33.95;;;;;;;6.16;80.69;101508.56;2191528;81;32975;-64
2021/12/15 03:42:54;;;;;;;63.08;33.33;;;;;;;6.18;80.71;101515.62;2191335;81;29639;-66
2021/12/15 03:46:02;;;;;;;64.70;33.40;;;;;;;6.19;80.73;101509.40;2192043;81;27686;-66
2021/12/15 03:49:05;;;;;;;58.48;32.03;;;;;;;6.19;80.73;101513.39;2192010;81;28637;-65
2021/12/15 03:52:09;;;;;;;61.92;33.42;;;;;;;6.21;80.72;101513.36;2192005;81;32028;-65
2021/12/15 03:55:11;;;;;;;63.08;33.18;;;;;;;6.21;80.69;101519.58;2153930;82;33047;-66
2021/12/15 03:58:17;;;;;;;65.60;33.45;;;;;;;6.22;80.72;101509.80;2154090;82;29640;-65
2021/12/15 04:01:22;;;;;;;69.65;33.55;;;;;;;6.24;80.74;101517.32;2154319;82;27619;-64
2021/12/15 04:04:24;;;;;;;65.62;32.75;;;;;;;6.25;80.74;101519.08;2181745;81;28659;-65
2021/12/15 04:07:26;;;;;;;62.27;33.65;;;;;;;6.26;80.75;101519.98;2192157;81;30983;-65
2021/12/15 04:10:28;;;;;;;58.20;30.48;;;;;;;6.27;80.80;101525.27;2192161;81;32953;-64
2021/12/15 04:13:30;;;;;;;59.10;32.05;;;;;;;6.30;80.77;101524.34;2191606;81;29820;-64
2021/12/15 04:19:36;;;;;;;68.70;33.05;;;;;;;6.29;80.77;101530.12;2191800;81;29481;-65
2021/12/15 04:22:38;;;;;;;66.35;33.13;;;;;;;6.30;80.79;101532.33;2191963;81;31012;-65
2021/12/15 04:25:41;;;;;;;62.27;32.63;;;;;;;6.31;80.79;101530.09;2191902;81;33918;-65
2021/12/15 04:28:43;;;;;;;63.25;31.93;;;;;;;6.30;80.78;101529.23;2191932;81;29626;-65
2021/12/15 04:31:50;;;;;;;71.90;32.80;;;;;;;6.32;80.82;101538.08;2191956;81;27692;-66
2021/12/15 04:34:51;;;;;;;72.35;33.30;;;;;;;6.33;80.81;101533.62;2184015;81;29448;-65
2021/12/15 04:37:55;;;;;;;69.82;32.23;;;;;;;6.33;80.84;101534.53;2191880;81;31002;-65
2021/12/15 04:41:00;;;;;;;71.07;34.00;;;;;;;6.34;80.87;101538.95;2191427;81;33127;-65
2021/12/15 04:44:09;;;;;;;73.07;33.02;;;;;;;6.34;80.84;101540.28;2160701;81;29617;-65
2021/12/15 04:47:10;;;;;;;74.90;32.85;;;;;;;6.34;80.90;101547.37;2172814;81;27656;-65
2021/12/15 04:50:12;;;;;;;63.45;29.80;;;;;;;6.36;80.88;101545.58;2153861;82;28035;-65
2021/12/15 04:53:16;;;;;;;74.75;32.85;;;;;;;6.37;80.95;101544.21;2173831;81;30911;-65
2021/12/15 04:56:18;;;;;;;65.17;31.10;;;;;;;6.39;80.93;101547.73;2153908;82;33140;-64
2021/12/15 04:59:21;;;;;;;74.00;33.50;;;;;;;6.42;80.91;101550.84;2173634;81;29702;-64
2021/12/15 05:02:24;;;;;;;74.07;32.95;;;;;;;6.43;80.93;101552.60;2189216;81;27732;-64
2021/12/15 05:05:29;;;;;;;72.20;34.88;;;;;;;6.45;80.93;101558.79;2189035;81;28647;-64
2021/12/15 05:08:30;;;;;;;80.65;35.33;;;;;;;6.47;80.88;101556.96;2189152;81;33813;-65
2021/12/15 05:11:33;;;;;;;77.92;33.63;;;;;;;6.47;80.87;101559.63;2188957;81;33759;-64
2021/12/15 05:14:35;;;;;;;71.28;32.10;;;;;;;6.49;80.84;101566.28;2189060;81;29656;-64
2021/12/15 05:17:36;;;;;;;70.05;32.30;;;;;;;6.50;80.85;101574.70;2189125;81;27862;-65
2021/12/15 05:20:39;;;;;;;73.80;32.73;;;;;;;6.50;80.91;101568.91;2153737;82;29606;-65
2021/12/15 05:23:44;;;;;;;72.27;33.02;;;;;;;6.50;80.88;101568.05;2173665;81;31050;-64
2021/12/15 05:26:45;;;;;;;69.15;31.27;;;;;;;6.52;80.92;101569.77;2153762;82;36790;-65
2021/12/15 05:29:50;;;;;;;66.10;32.38;;;;;;;6.53;80.90;101564.89;2173956;81;29627;-65
2021/12/15 05:32:52;;;;;;;78.37;33.55;;;;;;;6.54;80.89;101575.07;2189424;81;27656;-70
2021/12/15 05:35:56;;;;;;;73.78;33.58;;;;;;;6.54;80.91;101575.97;2189331;81;29486;-65
2021/12/15 05:38:58;;;;;;;69.85;30.05;;;;;;;6.54;80.91;101578.63;2154079;82;31115;-65
2021/12/15 05:42:00;;;;;;;77.60;33.42;;;;;;;6.56;80.91;101583.05;2173848;81;33834;-65
2021/12/15 05:45:02;;;;;;;84.00;36.90;;;;;;;6.57;80.88;101581.69;2155674;82;30418;-65
2021/12/15 05:48:08;;;;;;;85.03;35.78;;;;;;;6.58;80.90;101579.93;2117408;84;27718;-65
2021/12/15 05:51:10;;;;;;;80.20;36.93;;;;;;;6.59;80.91;101575.03;2191745;81;28744;-65
2021/12/15 05:54:12;;;;;;;82.47;37.90;;;;;;;6.58;80.91;101573.27;2191898;81;31264;-65
2021/12/15 05:57:14;;;;;;;95.83;40.05;;;;;;;6.58;80.92;101572.81;2191637;81;33172;-65
2021/12/15 06:00:24;;;;;;;123.25;48.85;;;;;;;6.58;80.95;101578.13;2192151;81;29786;-66
2021/12/15 06:03:26;;;;;;;103.92;43.17;;;;;;;6.58;80.95;101586.12;2191988;81;27718;-65
2021/12/15 06:06:29;;;;;;;92.82;38.78;;;;;;;6.56;80.92;101591.05;2191972;81;28510;-65
2021/12/15 06:09:31;;;;;;;81.45;34.13;;;;;;;6.56;80.98;101589.71;2155802;82;31014;-65
2021/12/15 06:12:33;;;;;;;78.70;33.92;;;;;;;6.56;81.04;101591.05;2120418;83;33060;-66
2021/12/15 06:15:36;;;;;;;76.33;32.08;;;;;;;6.57;81.10;101598.13;2191992;81;30425;-65
2021/12/15 06:18:38;;;;;;;90.47;35.40;;;;;;;6.59;81.13;101600.33;2191993;81;27613;-64
2021/12/15 06:21:39;;;;;;;94.60;37.48;;;;;;;6.61;81.12;101604.73;2191877;81;28688;-64
2021/12/15 06:24:41;;;;;;;96.32;41.60;;;;;;;6.63;81.15;101598.94;2191765;81;31832;-66
2021/12/15 06:27:43;;;;;;;94.55;39.38;;;;;;;6.66;81.10;101608.23;2155659;82;32951;-65
2021/12/15 06:30:45;;;;;;;82.70;34.53;;;;;;;6.66;81.10;101613.55;2117391;84;29638;-65
2021/12/15 06:33:47;;;;;;;74.25;32.17;;;;;;;6.66;81.05;101616.22;2192128;81;27720;-68
2021/12/15 06:36:49;;;;;;;77.72;32.58;;;;;;;6.67;81.06;101618.41;2191847;81;28660;-65
2021/12/15 06:39:51;;;;;;;70.78;31.50;;;;;;;6.67;81.09;101613.09;2191941;81;31055;-68
2021/12/15 06:42:53;;;;;;;72.90;30.05;;;;;;;6.66;81.07;101614.88;2187877;81;33877;-69
2021/12/15 06:59:06;;;;;;;79.25;34.90;;;;;;;6.67;81.24;101625.97;2173582;81;33265;-65
2021/12/15 07:02:09;;;;;;;73.02;34.88;;;;;;;6.69;81.28;101628.59;2173733;81;29631;-65
2021/12/15 07:05:12;;;;;;;70.00;30.57;;;;;;;6.69;81.25;101630.83;2173704;81;27708;-65
2021/12/15 07:08:16;;;;;;;67.15;29.42;;;;;;;6.70;81.26;101633.03;2173238;81;28683;-65
2021/12/15 07:11:19;;;;;;;68.30;30.17;;;;;;;6.72;81.30;101631.23;2173653;81;31827;-64
2021/12/15 07:14:21;;;;;;;67.58;29.67;;;;;;;6.74;81.32;101630.77;2173543;81;33044;-65
2021/12/15 07:17:25;;;;;;;62.93;29.02;;;;;;;6.78;81.31;101644.92;2173438;81;30440;-65
2021/12/15 07:20:35;;;;;;;70.80;29.17;;;;;;;6.79;81.32;101648.88;2153992;82;27737;-64
2021/12/15 07:23:32;;;;;;;67.55;30.20;;;;;;;6.82;81.29;101654.64;2172946;81;29521;-65
2021/12/15 07:26:35;;;;;;;66.33;29.37;;;;;;;6.84;81.29;101648.85;2153709;82;31740;-65
2021/12/15 07:29:37;;;;;;;60.50;28.17;;;;;;;6.85;81.31;101641.30;2173720;81;32961;-64
2021/12/15 07:32:40;;;;;;;65.50;29.55;;;;;;;6.88;81.33;101650.55;2153640;82;29647;-65
2021/12/15 07:35:42;;;;;;;69.37;31.30;;;;;;;6.91;81.29;101654.98;2173956;81;28325;-64
2021/12/15 07:38:44;;;;;;;63.60;28.73;;;;;;;6.94;81.28;101650.95;2153676;82;28092;-65
2021/12/15 07:41:52;;;;;;;69.37;32.65;;;;;;;6.95;81.29;101651.39;2173665;81;31003;-64
2021/12/15 07:44:53;;;;;;;78.22;38.33;;;;;;;6.98;81.28;101662.88;2154912;82;33179;-65
2021/12/15 07:47:59;;;;;;;72.42;32.55;;;;;;;7.01;81.25;101661.08;2155561;82;30467;-64
2021/12/15 07:51:05;;;;;;;67.00;32.23;;;;;;;7.04;81.27;101662.34;2191921;81;27647;-64
2021/12/15 07:54:07;;;;;;;59.88;29.85;;;;;;;7.05;81.29;101654.78;2191734;81;28655;-65
2021/12/15 07:57:17;;;;;;;62.67;30.17;;;;;;;7.10;81.32;101659.61;2191391;81;31857;-66
2021/12/15 08:00:17;;;;;;;64.62;31.12;;;;;;;7.11;81.27;101658.28;2174430;81;32967;-64
2021/12/15 08:03:20;;;;;;;63.28;30.82;;;;;;;7.17;81.31;101659.98;2191781;81;29804;-64
2021/12/15 08:06:25;;;;;;;65.20;32.08;;;;;;;7.22;81.35;101654.11;2191844;81;27701;-64
2021/12/15 08:09:27;;;;;;;64.45;31.30;;;;;;;7.25;81.26;101658.08;2191787;81;28649;-64
2021/12/15 08:12:29;;;;;;;59.63;30.85;;;;;;;7.29;81.32;101651.80;2191986;81;31242;-64
2021/12/15 08:15:31;;;;;;;67.75;32.08;;;;;;;7.35;81.30;101649.97;2191463;81;32993;-65
2021/12/15 08:18:39;;;;;;;63.65;31.45;;;;;;;7.36;81.20;101645.93;2191546;81;30484;-65
2021/12/15 08:21:41;;;;;;;58.92;28.73;;;;;;;7.38;81.20;101641.46;2191863;81;27728;-65
2021/12/15 08:24:43;;;;;;;57.13;29.07;;;;;;;7.43;81.24;101646.72;2155592;82;28076;-64
2021/12/15 08:27:46;;;;;;;72.00;31.50;;;;;;;7.47;81.23;101648.44;2181353;81;31019;-64
2021/12/15 08:30:50;;;;;;;66.75;32.45;;;;;;;7.52;81.29;101642.60;2181683;81;32952;-69
2021/12/15 08:33:51;;;;;;;64.07;30.20;;;;;;;7.57;81.25;101643.39;2191851;81;29690;-64
2021/12/15 08:36:54;;;;;;;64.42;32.38;;;;;;;7.63;81.25;101642.88;2191963;81;27541;-64
2021/12/15 08:39:56;;;;;;;62.53;32.05;;;;;;;7.69;81.24;101646.79;2191959;81;28759;-65
2021/12/15 08:42:59;;;;;;;68.83;32.28;;;;;;;7.75;81.20;101646.23;2191557;81;32007;-65
2021/12/15 08:46:06;;;;;;;63.87;31.12;;;;;;;7.80;81.13;101651.92;2191694;81;33952;-65
2021/12/15 08:49:13;;;;;;;55.48;30.17;;;;;;;7.84;81.06;101654.55;2190310;81;30344;-64
2021/12/15 08:52:14;;;;;;;54.98;26.87;;;;;;;7.86;80.87;101658.51;2191696;81;27616;-65
2021/12/15 08:55:16;;;;;;;49.88;26.45;;;;;;;7.84;80.82;101657.64;2155708;82;28857;-69
2021/12/15 08:58:21;;;;;;;53.17;28.07;;;;;;;7.86;80.86;101663.84;2117311;84;31871;-65
2021/12/15 09:01:23;;;;;;;55.40;29.47;;;;;;;7.88;80.88;101668.23;2192133;81;32957;-72
2021/12/15 09:04:25;;;;;;;51.88;27.42;;;;;;;7.88;80.82;101662.90;2192028;81;29635;-65
2021/12/15 09:07:27;;;;;;;60.95;27.05;;;;;;;7.87;80.72;101674.48;2192115;81;27656;-65
2021/12/15 09:10:35;;;;;;;51.92;27.50;;;;;;;7.85;80.72;101674.09;2191843;81;28132;-65
2021/12/15 09:13:38;;;;;;;45.70;25.97;;;;;;;7.85;80.73;101665.64;2155785;82;31981;-64
2021/12/15 09:16:42;;;;;;;52.25;26.42;;;;;;;7.85;80.79;101670.98;2191919;81;33870;-64
2021/12/15 09:19:44;;;;;;;46.37;25.75;;;;;;;7.88;80.82;101665.56;2192187;81;29685;-68
2021/12/15 09:22:47;;;;;;;43.25;23.65;;;;;;;7.93;80.87;101657.52;2191736;81;27716;-76
2021/12/15 09:25:49;;;;;;;44.23;23.83;;;;;;;7.98;80.79;101660.97;2192105;81;28649;-64
2021/12/15 09:28:53;;;;;;;40.43;23.45;;;;;;;8.02;80.80;101652.48;2191421;81;27685;-64
2021/12/15 09:31:55;;;;;;;39.35;21.77;;;;;;;8.10;80.81;101654.55;2191596;81;32488;-65
2021/12/15 09:35:00;;;;;;;42.80;24.00;;;;;;;8.18;80.85;101647.30;2192078;81;30607;-71
2021/12/15 09:38:01;;;;;;;36.68;21.05;;;;;;;8.29;80.92;101652.88;2192190;81;27641;-66
2021/12/15 09:41:06;;;;;;;36.45;21.52;;;;;;;8.40;80.79;101648.69;2155884;82;28623;-69
2021/12/15 09:44:12;;;;;;;36.42;19.85;;;;;;;8.45;80.72;101650.35;2125162;83;31057;-64
2021/12/15 09:47:22;;;;;;;30.88;19.62;;;;;;;8.50;80.58;101643.17;2191492;81;33023;-64
2021/12/15 10:03:37;;;;;;;34.67;21.45;;;;;;;8.61;80.16;101626.05;2156144;82;32963;-64
2021/12/15 10:06:48;;;;;;;27.33;17.90;;;;;;;8.61;80.19;101624.24;2125263;83;29705;-68
2021/12/15 10:19:46;;;;;;;26.70;15.93;;;;;;;8.58;79.97;101622.99;2192578;81;33029;-75
2021/12/15 10:22:53;;;;;;;26.77;17.85;;;;;;;8.59;79.96;101623.86;2192220;81;29787;-70
2021/12/15 10:25:57;;;;;;;27.70;16.55;;;;;;;8.58;79.87;101628.77;2192421;81;27737;-68
2021/12/15 10:29:08;;;;;;;25.45;16.67;;;;;;;8.58;80.00;101627.00;2192371;81;28676;-69
2021/12/15 10:32:11;;;;;;;25.77;17.90;;;;;;;8.59;79.89;101635.44;2192137;81;31049;-63
2021/12/15 10:35:42;;;;;;;27.13;17.40;;;;;;;8.59;79.97;101627.42;2192153;81;32961;-66
2021/12/15 10:38:51;;;;;;;28.57;17.73;;;;;;;8.57;79.85;101628.34;2191938;81;30601;-64
2021/12/15 10:41:55;;;;;;;26.95;17.85;;;;;;;8.57;79.98;101625.67;2192097;81;27753;-64
2021/12/15 10:45:10;;;;;;;34.53;20.95;;;;;;;8.57;79.85;101618.56;2183629;81;29492;-64
2021/12/15 10:48:23;;;;;;;35.43;21.35;;;;;;;8.59;79.89;101621.19;2153975;82;31901;-63
2021/12/15 10:51:38;;;;;;;37.75;21.02;;;;;;;8.62;79.96;101618.46;2172153;81;33183;-73
2021/12/15 10:54:46;;;;;;;21.27;13.57;;;;;;;8.65;79.97;101615.27;2154061;82;29688;-67
2021/12/15 10:57:48;;;;;;;28.80;17.52;;;;;;;8.70;79.93;101616.97;2173209;81;27708;-64
2021/12/15 11:00:50;;;;;;;32.20;18.48;;;;;;;8.72;79.88;101615.15;2173804;81;28658;-63
2021/12/15 11:03:52;;;;;;;29.57;18.92;;;;;;;8.76;79.87;101612.38;2153874;82;31878;-63
2021/12/15 11:07:10;;;;;;;26.50;18.62;;;;;;;8.80;79.87;101613.18;2173851;81;33763;-64
2021/12/15 11:10:26;;;;;;;27.90;18.20;;;;;;;8.85;79.85;101603.28;2153908;82;30651;-74
2021/12/15 11:13:30;;;;;;;27.40;18.42;;;;;;;8.90;79.94;101591.15;2153541;82;27665;-65
2021/12/15 11:16:32;;;;;;;21.85;15.63;;;;;;;8.97;79.88;101581.63;2173585;81;29558;-65
2021/12/15 11:20:10;;;;;;;26.33;18.30;;;;;;;9.04;79.83;101579.69;2189266;81;31887;-66
2021/12/15 11:23:20;;;;;;;25.00;17.85;;;;;;;9.13;79.85;101587.96;2189539;81;33527;-65
2021/12/15 11:26:19;;;;;;;24.37;16.45;;;;;;;9.20;79.77;101586.02;2188125;81;29630;-65
2021/12/15 11:29:42;;;;;;;21.75;14.83;;;;;;;9.28;79.69;101582.26;2189359;81;28184;-69
2021/12/15 11:32:50;;;;;;;16.85;12.68;;;;;;;9.34;79.52;101589.72;2189087;81;28644;-76
2021/12/15 11:36:03;;;;;;;28.00;16.57;;;;;;;9.39;79.38;101595.85;2189227;81;31008;-64
2021/12/15 11:39:18;;;;;;;22.95;14.07;;;;;;;9.41;79.39;101599.37;2188942;81;32910;-71
2021/12/15 11:42:24;;;;;;;19.02;12.25;;;;;;;9.43;79.27;101595.73;2189521;81;29661;-65
2021/12/15 11:45:28;;;;;;;25.05;17.98;;;;;;;9.40;78.98;101591.80;2185339;81;27751;-78
2021/12/15 11:48:33;;;;;;;27.50;16.67;;;;;;;9.40;79.04;101593.60;2191810;81;28688;-71
2021/12/15 11:52:00;;;;;;;28.80;16.00;;;;;;;9.38;78.80;101597.62;2191835;81;31007;-65
2021/12/15 11:55:07;;;;;;;27.40;17.10;;;;;;;9.33;78.75;101591.53;2155290;82;33811;-64
2021/12/15 11:58:09;;;;;;;23.70;15.18;;;;;;;9.28;78.81;101584.06;2118216;83;29628;-64
2021/12/15 12:01:33;;;;;;;21.97;15.55;;;;;;;9.28;78.84;101584.93;2192040;81;27604;-66
2021/12/15 12:04:40;;;;;;;28.62;16.32;;;;;;;9.28;78.80;101590.28;2191935;81;28650;-65
2021/12/15 12:07:57;;;;;;;27.67;16.95;;;;;;;9.28;78.81;101586.73;2191754;81;31074;-65
2021/12/15 12:11:05;;;;;;;27.00;16.25;;;;;;;9.28;78.72;101586.73;2190685;81;33632;-65
2021/12/15 12:14:01;;;;;;;31.50;19.45;;;;;;;9.27;78.71;101591.67;2154198;82;30480;-68
2021/12/15 12:17:11;;;;;;;27.70;18.65;;;;;;;9.27;78.74;101591.67;2117356;83;27664;-65
2021/12/15 12:20:18;;;;;;;29.23;19.85;;;;;;;9.28;78.78;101586.27;2191087;80;28802;-65
2021/12/15 12:23:29;;;;;;;28.25;16.48;;;;;;;9.30;78.78;101593.37;2191830;81;31902;-67
2021/12/15 12:26:34;;;;;;;52.85;35.13;;;;;;;9.32;78.67;101593.78;2155715;82;32961;-65
2021/12/15 12:29:36;;;;;;;44.63;25.57;;;;;;;9.34;78.74;101603.99;2137520;83;29638;-64
2021/12/15 12:32:40;;;;;;;46.60;30.37;;;;;;;9.37;78.81;101593.67;2191895;81;27674;-65
2021/12/15 12:36:11;;;;;;;68.05;39.50;;;;;;;9.38;78.65;101599.44;2192158;81;28115;-69
2021/12/15 12:39:13;;;;;;;42.88;27.05;;;;;;;9.39;78.68;101597.19;2103767;84;31886;-65
2021/12/15 12:42:37;;;;;;;61.68;36.20;;;;;;;9.39;78.61;101597.19;2057315;86;28092;-65
2021/12/15 12:45:41;;;;;;;56.28;33.53;;;;;;;9.40;78.52;101594.94;2049391;85;29078;-65
2021/12/15 12:59:25;;;;;;;31.42;24.55;;;;;;;9.34;78.39;101601.76;2041303;86;48372;-64
2021/12/15 13:02:39;;;;;;;40.08;30.32;;;;;;;9.46;78.32;101596.11;2059206;86;29866;-65
2021/12/15 13:05:59;;;;;;;50.48;37.58;;;;;;;9.48;78.05;101597.42;2059597;86;27752;-64
2021/12/15 13:09:15;;;;;;;35.65;28.87;;;;;;;9.41;77.98;101600.72;2059237;86;28718;-64
2021/12/15 13:12:23;;;;;;;37.35;25.62;;;;;;;9.28;77.88;101594.29;2059392;86;31816;-64
2021/12/15 13:15:30;;;;;;;34.10;22.95;;;;;;;9.24;77.97;101587.72;2084524;84;33531;-66
2021/12/15 13:18:47;;;;;;;36.63;24.75;;;;;;;9.17;77.83;101586.13;2144514;83;29725;-65
2021/12/15 13:29:22;;;;;;;46.35;28.57;;;;;;;9.11;77.99;101589.79;2146527;82;31131;-65
2021/12/15 13:32:31;;;;;;;34.33;22.55;;;;;;;9.08;77.83;101595.23;2145171;83;32962;-64
2021/12/15 13:35:46;;;;;;;41.18;24.60;;;;;;;9.05;77.87;101593.95;2146700;82;29708;-65
2021/12/15 13:39:05;;;;;;;41.58;22.37;;;;;;;9.02;77.87;101597.55;2139951;83;28291;-64
2021/12/15 13:42:13;;;;;;;42.95;22.85;;;;;;;8.97;77.73;101598.14;2146095;82;29412;-67
2021/12/15 13:45:32;;;;;;;44.40;25.48;;;;;;;8.94;77.72;101594.19;2145676;81;31027;-69
2021/12/15 13:48:59;;;;;;;45.92;25.45;;;;;;;8.96;77.83;101601.72;2144056;83;32847;-67
2021/12/15 13:52:28;;;;;;;47.85;26.12;;;;;;;9.01;77.84;101590.48;2085598;85;30558;-69
2021/12/15 13:55:39;;;;;;;34.35;20.65;;;;;;;9.04;77.73;101594.87;2138597;83;27704;-67
2021/12/15 13:58:41;;;;;;;33.80;19.65;;;;;;;9.05;77.76;101593.48;2070573;86;28660;-69
2021/12/15 14:01:48;;;;;;;40.23;21.82;;;;;;;9.06;77.68;101597.92;2049626;86;30886;-66
2021/12/15 14:04:59;;;;;;;39.33;23.15;;;;;;;9.09;77.70;101599.19;2126910;81;33007;-67
2021/12/15 14:08:06;;;;;;;44.35;25.52;;;;;;;9.11;77.75;101595.13;2181892;81;30507;-66
2021/12/15 14:11:25;;;;;;;45.85;24.52;;;;;;;9.15;77.78;101596.83;2182026;81;27608;-67
2021/12/15 14:14:27;;;;;;;39.20;23.20;;;;;;;9.17;77.69;101601.69;2179923;81;29777;-67
2021/12/15 14:17:29;;;;;;;26.60;16.17;;;;;;;9.17;77.51;101599.02;2144240;83;31220;-65
2021/12/15 14:20:38;;;;;;;27.95;15.60;;;;;;;9.15;77.47;101607.53;2160401;81;33396;-66
2021/12/15 14:23:47;;;;;;;26.02;15.78;;;;;;;9.11;77.45;101602.71;2181923;81;29643;-70
2021/12/15 14:26:51;;;;;;;28.02;16.45;;;;;;;9.09;77.44;101607.21;2181673;81;27696;-68
2021/12/15 14:29:53;;;;;;;29.02;17.05;;;;;;;9.07;77.43;101611.70;2153576;81;28667;-67
2021/12/15 14:32:55;;;;;;;31.60;17.75;;;;;;;9.03;77.34;101611.81;2144604;83;31442;-67
2021/12/15 14:36:01;;;;;;;25.02;15.23;;;;;;;9.00;77.37;101605.20;2144531;83;32984;-66
2021/12/15 14:39:11;;;;;;;22.82;14.73;;;;;;;8.96;77.37;101614.61;2143739;83;29135;-68
2021/12/15 14:42:17;;;;;;;27.90;17.37;;;;;;;8.92;77.33;101639.67;2175961;81;27708;-66
2021/12/15 14:45:21;;;;;;;30.02;18.57;;;;;;;8.87;77.34;101636.64;2181323;81;29528;-67
2021/12/15 14:48:23;;;;;;;24.95;16.90;;;;;;;8.84;77.46;101632.25;2181750;81;31152;-60
2021/12/15 14:51:25;;;;;;;26.68;16.85;;;;;;;8.81;77.35;101637.66;2179653;81;33037;-63
2021/12/15 14:54:32;;;;;;;29.23;19.02;;;;;;;8.77;77.47;101634.64;2179458;81;29622;-65
2021/12/15 14:57:33;;;;;;;34.75;21.57;;;;;;;8.72;77.44;101641.39;2181297;81;27642;-65
2021/12/15 15:00:40;;;;;;;31.07;18.30;;;;;;;8.69;77.56;101636.11;2182097;81;28849;-65
2021/12/15 15:04:04;;;;;;;33.35;21.15;;;;;;;8.67;77.57;101635.29;2181068;81;31179;-63
2021/12/15 15:07:10;;;;;;;22.42;15.18;;;;;;;8.64;77.60;101633.53;2179597;81;33113;-65
2021/12/15 15:10:17;;;;;;;31.82;18.42;;;;;;;8.59;77.53;101642.55;2181444;81;30493;-64
2021/12/15 15:13:22;;;;;;;29.32;18.82;;;;;;;8.54;77.54;101639.98;2181591;81;28184;-64
2021/12/15 15:16:23;;;;;;;;;;;;;;;8.51;77.63;101642.70;2184084;81;29802;-65
2021/12/15 15:19:27;;;;;;;32.85;20.15;;;;;;;8.49;77.68;101642.75;2155734;82;31794;-64
2021/12/15 15:22:33;;;;;;;31.00;19.30;;;;;;;8.47;77.73;101651.65;2191908;81;33763;-64
2021/12/15 15:25:37;;;;;;;;;;;;;;;8.42;77.66;101655.75;2194708;81;30575;-61
2021/12/15 15:28:44;;;;;;;28.23;19.07;;;;;;;8.39;77.79;101652.27;2191967;81;27626;-61
2021/12/15 15:31:46;;;;;;;28.80;17.98;;;;;;;8.36;77.87;101650.07;2153947;81;29598;-60
2021/12/15 15:34:51;;;;;;;50.28;31.55;;;;;;;8.35;77.84;101645.64;2130620;83;31915;-60